sensor_id;sensor_type;location;lat;lon;timestamp;temperature;humidity
20524;DHT22;10420;48.542;12.270;2022-10-31T00:00:35;9.60;99.90
20524;DHT22;10420;48.542;12.270;2022-10-31T00:05:36;9.50;99.90
20524;DHT22;10420;48.542;12.270;2022-10-31T00:10:41;9.50;99.90
20524;DHT22;10420;48.542;12.270;2022-10-31T00:15:42;9.50;99.90
20524;DHT22;10420;48.542;12.270;2022-10-31T00:20:43;9.40;99.90
20524;DHT22;10420;48.542;12.270;2022-10-31T00:25:43;9.40;99.90
20524;DHT22;10420;48.542;12.270;2022-10-31T00:30:44;9.40;99.90
20524;DHT22;10420;48.542;12.270;2022-10-31T00:35:51;9.40;99.90
20524;DHT22;10420;48.542;12.270;2022-10-31T00:40:52;9.30;99.90
20524;DHT22;10420;48.542;12.270;2022-10-31T00:45:52;9.40;99.90
20524;DHT22;10420;48.542;12.270;2022-10-31T00:50:53;9.40;99.90
20524;DHT22;10420;48.542;12.270;2022-10-31T00:55:54;9.30;99.90
20524;DHT22;10420;48.542;12.270;2022-10-31T01:00:54;9.30;99.90
20524;DHT22;10420;48.542;12.270;2022-10-31T01:06:00;9.20;99.90
20524;DHT22;10420;48.542;12.270;2022-10-31T01:11:10;9.20;99.90
20524;DHT22;10420;48.542;12.270;2022-10-31T01:16:16;9.20;99.90
20524;DHT22;10420;48.542;12.270;2022-10-31T01:21:20;9.20;99.90
20524;DHT22;10420;48.542;12.270;2022-10-31T01:26:24;9.30;99.90
20524;DHT22;10420;48.542;12.270;2022-10-31T01:31:30;9.10;99.90
20524;DHT22;10420;48.542;12.270;2022-10-31T01:36:37;9.00;99.90
20524;DHT22;10420;48.542;12.270;2022-10-31T01:41:41;9.00;99.90
20524;DHT22;10420;48.542;12.270;2022-10-31T01:51:49;8.80;99.90
20524;DHT22;10420;48.542;12.270;2022-10-31T01:56:53;8.90;99.90
20524;DHT22;10420;48.542;12.270;2022-10-31T02:01:55;8.90;99.90
20524;DHT22;10420;48.542;12.270;2022-10-31T02:07:00;8.80;99.90
20524;DHT22;10420;48.542;12.270;2022-10-31T02:12:03;8.90;99.90
20524;DHT22;10420;48.542;12.270;2022-10-31T02:17:04;8.90;99.90
20524;DHT22;10420;48.542;12.270;2022-10-31T02:22:28;8.90;99.90
20524;DHT22;10420;48.542;12.270;2022-10-31T02:33:42;8.80;99.90
20524;DHT22;10420;48.542;12.270;2022-10-31T02:44:08;8.70;99.90
20524;DHT22;10420;48.542;12.270;2022-10-31T02:49:27;8.50;99.90
20524;DHT22;10420;48.542;12.270;2022-10-31T02:54:29;8.50;99.90
20524;DHT22;10420;48.542;12.270;2022-10-31T02:59:31;8.60;99.90
20524;DHT22;10420;48.542;12.270;2022-10-31T03:04:56;8.60;99.90
20524;DHT22;10420;48.542;12.270;2022-10-31T03:10:18;8.50;99.90
20524;DHT22;10420;48.542;12.270;2022-10-31T03:15:30;8.40;99.90
20524;DHT22;10420;48.542;12.270;2022-10-31T03:21:01;8.50;99.90
20524;DHT22;10420;48.542;12.270;2022-10-31T03:26:06;8.40;99.90
20524;DHT22;10420;48.542;12.270;2022-10-31T03:31:09;8.30;99.90
20524;DHT22;10420;48.542;12.270;2022-10-31T03:36:12;8.40;99.90
20524;DHT22;10420;48.542;12.270;2022-10-31T03:41:21;8.20;99.90
20524;DHT22;10420;48.542;12.270;2022-10-31T03:46:24;8.30;99.90
20524;DHT22;10420;48.542;12.270;2022-10-31T03:51:32;8.40;99.90
20524;DHT22;10420;48.542;12.270;2022-10-31T03:56:41;8.20;99.90
20524;DHT22;10420;48.542;12.270;2022-10-31T04:01:47;8.10;99.90
20524;DHT22;10420;48.542;12.270;2022-10-31T04:06:50;8.10;99.90
20524;DHT22;10420;48.542;12.270;2022-10-31T04:11:54;8.00;99.90
20524;DHT22;10420;48.542;12.270;2022-10-31T04:16:56;8.10;99.90
20524;DHT22;10420;48.542;12.270;2022-10-31T04:21:56;8.00;99.90
20524;DHT22;10420;48.542;12.270;2022-10-31T04:26:57;7.90;99.90
20524;DHT22;10420;48.542;12.270;2022-10-31T04:31:58;7.90;99.90
20524;DHT22;10420;48.542;12.270;2022-10-31T04:36:58;7.90;99.90
20524;DHT22;10420;48.542;12.270;2022-10-31T04:41:59;7.90;99.90
20524;DHT22;10420;48.542;12.270;2022-10-31T04:46:59;7.90;99.90
20524;DHT22;10420;48.542;12.270;2022-10-31T04:52:00;7.80;99.90
20524;DHT22;10420;48.542;12.270;2022-10-31T04:57:01;7.80;99.90
20524;DHT22;10420;48.542;12.270;2022-10-31T05:02:01;8.00;99.90
20524;DHT22;10420;48.542;12.270;2022-10-31T05:07:02;7.90;99.90
20524;DHT22;10420;48.542;12.270;2022-10-31T05:12:03;7.80;99.90
20524;DHT22;10420;48.542;12.270;2022-10-31T05:17:03;8.00;99.90
20524;DHT22;10420;48.542;12.270;2022-10-31T05:22:04;7.80;99.90
20524;DHT22;10420;48.542;12.270;2022-10-31T05:27:05;7.70;99.90
20524;DHT22;10420;48.542;12.270;2022-10-31T05:32:05;7.60;99.90
20524;DHT22;10420;48.542;12.270;2022-10-31T05:37:06;7.60;99.90
20524;DHT22;10420;48.542;12.270;2022-10-31T05:42:07;7.70;99.90
20524;DHT22;10420;48.542;12.270;2022-10-31T05:47:07;7.50;99.90
20524;DHT22;10420;48.542;12.270;2022-10-31T05:52:08;7.70;99.90
20524;DHT22;10420;48.542;12.270;2022-10-31T05:57:08;7.60;99.90
20524;DHT22;10420;48.542;12.270;2022-10-31T06:02:09;7.80;99.90
20524;DHT22;10420;48.542;12.270;2022-10-31T06:07:10;7.50;99.90
20524;DHT22;10420;48.542;12.270;2022-10-31T06:12:10;7.60;99.90
20524;DHT22;10420;48.542;12.270;2022-10-31T06:17:11;7.70;99.90
20524;DHT22;10420;48.542;12.270;2022-10-31T06:22:12;7.60;99.90
20524;DHT22;10420;48.542;12.270;2022-10-31T06:27:12;7.70;99.90
20524;DHT22;10420;48.542;12.270;2022-10-31T06:32:13;7.90;99.90
20524;DHT22;10420;48.542;12.270;2022-10-31T06:37:15;7.90;99.90
20524;DHT22;10420;48.542;12.270;2022-10-31T06:42:16;8.10;99.90
20524;DHT22;10420;48.542;12.270;2022-10-31T06:47:17;8.20;99.90
20524;DHT22;10420;48.542;12.270;2022-10-31T06:52:17;8.30;99.90
20524;DHT22;10420;48.542;12.270;2022-10-31T06:57:18;8.50;99.90
20524;DHT22;10420;48.542;12.270;2022-10-31T07:02:19;8.50;99.90
20524;DHT22;10420;48.542;12.270;2022-10-31T07:07:19;8.70;99.90
20524;DHT22;10420;48.542;12.270;2022-10-31T07:12:21;8.70;99.90
20524;DHT22;10420;48.542;12.270;2022-10-31T07:17:23;8.80;99.90
20524;DHT22;10420;48.542;12.270;2022-10-31T07:22:24;9.20;99.90
20524;DHT22;10420;48.542;12.270;2022-10-31T07:27:25;9.50;99.90
20524;DHT22;10420;48.542;12.270;2022-10-31T07:32:26;9.50;99.90
20524;DHT22;10420;48.542;12.270;2022-10-31T07:37:27;9.90;99.90
20524;DHT22;10420;48.542;12.270;2022-10-31T07:42:28;10.10;99.90
20524;DHT22;10420;48.542;12.270;2022-10-31T07:47:28;10.10;99.90
20524;DHT22;10420;48.542;12.270;2022-10-31T07:52:29;10.40;99.90
20524;DHT22;10420;48.542;12.270;2022-10-31T07:57:30;10.50;99.90
20524;DHT22;10420;48.542;12.270;2022-10-31T08:02:30;10.70;99.90
20524;DHT22;10420;48.542;12.270;2022-10-31T08:07:36;11.00;99.90
20524;DHT22;10420;48.542;12.270;2022-10-31T08:12:38;11.40;99.90
20524;DHT22;10420;48.542;12.270;2022-10-31T08:17:38;11.40;99.90
20524;DHT22;10420;48.542;12.270;2022-10-31T08:22:39;11.70;99.90
20524;DHT22;10420;48.542;12.270;2022-10-31T08:27:39;11.80;99.90
20524;DHT22;10420;48.542;12.270;2022-10-31T08:32:40;11.70;99.90
20524;DHT22;10420;48.542;12.270;2022-10-31T08:37:41;11.70;99.90
20524;DHT22;10420;48.542;12.270;2022-10-31T08:42:41;11.90;99.90
20524;DHT22;10420;48.542;12.270;2022-10-31T08:47:42;12.20;99.90
20524;DHT22;10420;48.542;12.270;2022-10-31T08:52:43;12.50;99.90
20524;DHT22;10420;48.542;12.270;2022-10-31T08:57:43;12.80;99.90
20524;DHT22;10420;48.542;12.270;2022-10-31T09:02:44;13.20;99.90
20524;DHT22;10420;48.542;12.270;2022-10-31T09:07:45;13.60;99.90
20524;DHT22;10420;48.542;12.270;2022-10-31T09:12:58;16.90;99.90
20524;DHT22;10420;48.542;12.270;2022-10-31T09:17:59;23.40;99.90
20524;DHT22;10420;48.542;12.270;2022-10-31T09:28:04;24.40;99.90
20524;DHT22;10420;48.542;12.270;2022-10-31T09:33:12;24.70;99.90
20524;DHT22;10420;48.542;12.270;2022-10-31T09:38:18;23.80;99.90
20524;DHT22;10420;48.542;12.270;2022-10-31T09:48:35;25.90;99.90
20524;DHT22;10420;48.542;12.270;2022-10-31T09:54:00;25.80;99.90
20524;DHT22;10420;48.542;12.270;2022-10-31T09:59:05;26.70;99.90
20524;DHT22;10420;48.542;12.270;2022-10-31T10:04:19;25.30;99.90
20524;DHT22;10420;48.542;12.270;2022-10-31T10:09:25;25.70;99.90
20524;DHT22;10420;48.542;12.270;2022-10-31T10:14:41;25.50;99.90
20524;DHT22;10420;48.542;12.270;2022-10-31T10:25:03;26.30;99.90
20524;DHT22;10420;48.542;12.270;2022-10-31T10:30:14;27.30;99.90
20524;DHT22;10420;48.542;12.270;2022-10-31T10:35:30;27.30;99.90
20524;DHT22;10420;48.542;12.270;2022-10-31T10:40:31;25.30;99.90
20524;DHT22;10420;48.542;12.270;2022-10-31T10:45:32;26.60;99.90
20524;DHT22;10420;48.542;12.270;2022-10-31T10:50:52;25.70;99.90
20524;DHT22;10420;48.542;12.270;2022-10-31T11:01:11;22.60;99.90
20524;DHT22;10420;48.542;12.270;2022-10-31T11:06:21;20.20;99.90
20524;DHT22;10420;48.542;12.270;2022-10-31T11:11:28;20.10;99.90
20524;DHT22;10420;48.542;12.270;2022-10-31T11:16:37;19.60;99.90
20524;DHT22;10420;48.542;12.270;2022-10-31T11:21:38;19.00;99.90
20524;DHT22;10420;48.542;12.270;2022-10-31T11:26:39;18.90;99.90
20524;DHT22;10420;48.542;12.270;2022-10-31T11:31:41;19.40;99.90
20524;DHT22;10420;48.542;12.270;2022-10-31T11:36:43;19.70;99.90
20524;DHT22;10420;48.542;12.270;2022-10-31T11:41:45;19.10;99.90
20524;DHT22;10420;48.542;12.270;2022-10-31T11:46:58;18.70;99.90
20524;DHT22;10420;48.542;12.270;2022-10-31T11:52:16;18.30;99.90
20524;DHT22;10420;48.542;12.270;2022-10-31T11:57:31;18.10;99.90
20524;DHT22;10420;48.542;12.270;2022-10-31T12:02:32;17.70;99.90
20524;DHT22;10420;48.542;12.270;2022-10-31T12:07:33;17.90;99.90
20524;DHT22;10420;48.542;12.270;2022-10-31T12:13:06;18.20;99.90
20524;DHT22;10420;48.542;12.270;2022-10-31T12:23:34;18.30;99.90
20524;DHT22;10420;48.542;12.270;2022-10-31T13:00:16;17.80;99.90
20524;DHT22;10420;48.542;12.270;2022-10-31T13:05:26;17.60;99.90
20524;DHT22;10420;48.542;12.270;2022-10-31T13:10:44;17.50;99.90
20524;DHT22;10420;48.542;12.270;2022-10-31T13:15:50;17.30;99.90
20524;DHT22;10420;48.542;12.270;2022-10-31T13:20:51;17.20;99.90
20524;DHT22;10420;48.542;12.270;2022-10-31T13:25:54;17.20;99.90
20524;DHT22;10420;48.542;12.270;2022-10-31T13:30:56;17.00;99.90
20524;DHT22;10420;48.542;12.270;2022-10-31T13:36:21;16.90;99.90
20524;DHT22;10420;48.542;12.270;2022-10-31T13:46:52;16.60;99.90
20524;DHT22;10420;48.542;12.270;2022-10-31T13:52:04;16.40;99.90
20524;DHT22;10420;48.542;12.270;2022-10-31T13:57:33;16.30;99.90
20524;DHT22;10420;48.542;12.270;2022-10-31T14:02:36;16.20;99.90
20524;DHT22;10420;48.542;12.270;2022-10-31T14:07:43;16.10;99.90
20524;DHT22;10420;48.542;12.270;2022-10-31T14:12:45;16.00;99.90
20524;DHT22;10420;48.542;12.270;2022-10-31T14:17:54;15.90;99.90
20524;DHT22;10420;48.542;12.270;2022-10-31T14:22:55;15.90;99.90
20524;DHT22;10420;48.542;12.270;2022-10-31T14:27:58;15.80;99.90
20524;DHT22;10420;48.542;12.270;2022-10-31T14:33:01;15.80;99.90
20524;DHT22;10420;48.542;12.270;2022-10-31T14:43:46;15.70;99.90
20524;DHT22;10420;48.542;12.270;2022-10-31T14:54:04;15.70;99.90
20524;DHT22;10420;48.542;12.270;2022-10-31T14:59:13;15.70;99.90
20524;DHT22;10420;48.542;12.270;2022-10-31T15:04:20;15.60;99.90
20524;DHT22;10420;48.542;12.270;2022-10-31T15:14:28;15.50;99.90
20524;DHT22;10420;48.542;12.270;2022-10-31T15:19:30;15.30;99.90
20524;DHT22;10420;48.542;12.270;2022-10-31T15:24:37;15.20;99.90
20524;DHT22;10420;48.542;12.270;2022-10-31T15:29:48;15.10;99.90
20524;DHT22;10420;48.542;12.270;2022-10-31T15:34:51;14.90;99.90
20524;DHT22;10420;48.542;12.270;2022-10-31T15:39:52;14.70;99.90
20524;DHT22;10420;48.542;12.270;2022-10-31T15:45:04;14.70;99.90
20524;DHT22;10420;48.542;12.270;2022-10-31T15:50:19;14.70;99.90
20524;DHT22;10420;48.542;12.270;2022-10-31T15:55:29;14.40;99.90
20524;DHT22;10420;48.542;12.270;2022-10-31T16:00:32;14.10;99.90
20524;DHT22;10420;48.542;12.270;2022-10-31T16:06:00;14.00;99.90
20524;DHT22;10420;48.542;12.270;2022-10-31T16:16:15;14.00;99.90
20524;DHT22;10420;48.542;12.270;2022-10-31T16:21:24;13.80;99.90
20524;DHT22;10420;48.542;12.270;2022-10-31T16:26:25;13.70;99.90
20524;DHT22;10420;48.542;12.270;2022-10-31T16:31:37;13.50;99.90
20524;DHT22;10420;48.542;12.270;2022-10-31T16:36:38;13.40;99.90
20524;DHT22;10420;48.542;12.270;2022-10-31T16:41:41;13.30;99.90
20524;DHT22;10420;48.542;12.270;2022-10-31T16:46:43;13.20;99.90
20524;DHT22;10420;48.542;12.270;2022-10-31T16:51:43;13.00;99.90
20524;DHT22;10420;48.542;12.270;2022-10-31T16:56:44;13.00;99.90
20524;DHT22;10420;48.542;12.270;2022-10-31T17:01:48;12.90;99.90
20524;DHT22;10420;48.542;12.270;2022-10-31T17:06:49;12.90;99.90
20524;DHT22;10420;48.542;12.270;2022-10-31T17:11:51;13.00;99.90
20524;DHT22;10420;48.542;12.270;2022-10-31T17:16:53;13.00;99.90
20524;DHT22;10420;48.542;12.270;2022-10-31T17:21:53;13.00;99.90
20524;DHT22;10420;48.542;12.270;2022-10-31T17:26:54;12.80;99.90
20524;DHT22;10420;48.542;12.270;2022-10-31T17:31:55;12.60;99.90
20524;DHT22;10420;48.542;12.270;2022-10-31T17:36:55;12.60;99.90
20524;DHT22;10420;48.542;12.270;2022-10-31T17:41:56;12.40;99.90
20524;DHT22;10420;48.542;12.270;2022-10-31T17:46:57;12.10;99.90
20524;DHT22;10420;48.542;12.270;2022-10-31T17:51:57;12.10;99.90
20524;DHT22;10420;48.542;12.270;2022-10-31T17:56:58;11.90;99.90
20524;DHT22;10420;48.542;12.270;2022-10-31T18:01:59;12.00;99.90
20524;DHT22;10420;48.542;12.270;2022-10-31T18:07:00;11.70;99.90
20524;DHT22;10420;48.542;12.270;2022-10-31T18:12:01;11.60;99.90
20524;DHT22;10420;48.542;12.270;2022-10-31T18:17:01;11.50;99.90
20524;DHT22;10420;48.542;12.270;2022-10-31T18:22:02;11.40;99.90
20524;DHT22;10420;48.542;12.270;2022-10-31T18:27:03;11.30;99.90
20524;DHT22;10420;48.542;12.270;2022-10-31T18:32:04;11.20;99.90
20524;DHT22;10420;48.542;12.270;2022-10-31T18:37:06;11.10;99.90
20524;DHT22;10420;48.542;12.270;2022-10-31T18:42:07;11.00;99.90
20524;DHT22;10420;48.542;12.270;2022-10-31T18:47:07;10.90;99.90
20524;DHT22;10420;48.542;12.270;2022-10-31T18:52:08;10.90;99.90
20524;DHT22;10420;48.542;12.270;2022-10-31T18:57:09;11.00;99.90
20524;DHT22;10420;48.542;12.270;2022-10-31T19:02:13;10.90;99.90
20524;DHT22;10420;48.542;12.270;2022-10-31T19:07:17;10.60;99.90
20524;DHT22;10420;48.542;12.270;2022-10-31T19:12:17;10.50;99.90
20524;DHT22;10420;48.542;12.270;2022-10-31T19:17:18;10.50;99.90
20524;DHT22;10420;48.542;12.270;2022-10-31T19:22:19;10.30;99.90
20524;DHT22;10420;48.542;12.270;2022-10-31T19:27:19;10.20;99.90
20524;DHT22;10420;48.542;12.270;2022-10-31T19:32:20;10.20;99.90
20524;DHT22;10420;48.542;12.270;2022-10-31T19:37:21;10.20;99.90
20524;DHT22;10420;48.542;12.270;2022-10-31T19:42:22;10.20;99.90
20524;DHT22;10420;48.542;12.270;2022-10-31T19:47:23;10.00;99.90
20524;DHT22;10420;48.542;12.270;2022-10-31T19:52:24;10.00;99.90
20524;DHT22;10420;48.542;12.270;2022-10-31T19:57:25;9.90;99.90
20524;DHT22;10420;48.542;12.270;2022-10-31T20:02:25;10.10;99.90
20524;DHT22;10420;48.542;12.270;2022-10-31T20:07:26;10.00;99.90
20524;DHT22;10420;48.542;12.270;2022-10-31T20:12:27;9.90;99.90
20524;DHT22;10420;48.542;12.270;2022-10-31T20:17:28;9.80;99.90
20524;DHT22;10420;48.542;12.270;2022-10-31T20:22:28;9.70;99.90
20524;DHT22;10420;48.542;12.270;2022-10-31T20:27:29;9.70;99.90
20524;DHT22;10420;48.542;12.270;2022-10-31T20:32:31;9.70;99.90
20524;DHT22;10420;48.542;12.270;2022-10-31T20:37:32;9.50;99.90
20524;DHT22;10420;48.542;12.270;2022-10-31T20:42:34;9.40;99.90
20524;DHT22;10420;48.542;12.270;2022-10-31T20:47:34;9.40;99.90
20524;DHT22;10420;48.542;12.270;2022-10-31T20:52:35;9.20;99.90
20524;DHT22;10420;48.542;12.270;2022-10-31T20:57:35;9.30;99.90
20524;DHT22;10420;48.542;12.270;2022-10-31T21:02:40;9.20;99.90
20524;DHT22;10420;48.542;12.270;2022-10-31T21:07:41;9.00;99.90
20524;DHT22;10420;48.542;12.270;2022-10-31T21:12:43;9.10;99.90
20524;DHT22;10420;48.542;12.270;2022-10-31T21:17:44;9.00;99.90
20524;DHT22;10420;48.542;12.270;2022-10-31T21:22:44;8.90;99.90
20524;DHT22;10420;48.542;12.270;2022-10-31T21:27:45;8.60;99.90
20524;DHT22;10420;48.542;12.270;2022-10-31T21:32:46;8.50;99.90
20524;DHT22;10420;48.542;12.270;2022-10-31T21:37:46;8.60;99.90
20524;DHT22;10420;48.542;12.270;2022-10-31T21:42:47;8.50;99.90
20524;DHT22;10420;48.542;12.270;2022-10-31T21:47:48;8.70;99.90
20524;DHT22;10420;48.542;12.270;2022-10-31T21:52:49;8.60;99.90
20524;DHT22;10420;48.542;12.270;2022-10-31T21:57:49;8.40;99.90
20524;DHT22;10420;48.542;12.270;2022-10-31T22:02:50;8.50;99.90
20524;DHT22;10420;48.542;12.270;2022-10-31T22:07:50;8.50;99.90
20524;DHT22;10420;48.542;12.270;2022-10-31T22:12:51;8.50;99.90
20524;DHT22;10420;48.542;12.270;2022-10-31T22:17:52;8.40;99.90
20524;DHT22;10420;48.542;12.270;2022-10-31T22:22:53;8.40;99.90
20524;DHT22;10420;48.542;12.270;2022-10-31T22:27:53;8.40;99.90
20524;DHT22;10420;48.542;12.270;2022-10-31T22:32:54;8.30;99.90
20524;DHT22;10420;48.542;12.270;2022-10-31T22:37:54;8.20;99.90
20524;DHT22;10420;48.542;12.270;2022-10-31T22:42:55;8.10;99.90
20524;DHT22;10420;48.542;12.270;2022-10-31T22:47:56;8.10;99.90
20524;DHT22;10420;48.542;12.270;2022-10-31T22:52:56;8.10;99.90
20524;DHT22;10420;48.542;12.270;2022-10-31T22:57:57;8.00;99.90
20524;DHT22;10420;48.542;12.270;2022-10-31T23:02:58;8.00;99.90
20524;DHT22;10420;48.542;12.270;2022-10-31T23:07:58;8.00;99.90
20524;DHT22;10420;48.542;12.270;2022-10-31T23:12:59;8.00;99.90
20524;DHT22;10420;48.542;12.270;2022-10-31T23:18:18;8.10;99.90
20524;DHT22;10420;48.542;12.270;2022-10-31T23:23:20;8.00;99.90
20524;DHT22;10420;48.542;12.270;2022-10-31T23:28:20;8.00;99.90
20524;DHT22;10420;48.542;12.270;2022-10-31T23:33:21;8.10;99.90
20524;DHT22;10420;48.542;12.270;2022-10-31T23:38:22;7.70;99.90
20524;DHT22;10420;48.542;12.270;2022-10-31T23:43:22;7.50;99.90
20524;DHT22;10420;48.542;12.270;2022-10-31T23:48:23;7.70;99.90
20524;DHT22;10420;48.542;12.270;2022-10-31T23:53:24;7.60;99.90
20524;DHT22;10420;48.542;12.270;2022-10-31T23:58:24;7.60;99.90
